Hlavní strana
METAR-TAF:

METAR-TAF

Letiště :

Mo i Rana, Norsko

zeměpisná šířka: 66-22N, zeměpisná délka: 014-18E, výška: 7 m

Aktuální stav počasí

Zpráva byla vytvořena před 18 minutami, v 19:20 UTC
vítr z různých směrů 2 kt
Teplota 0°C
Vlhkost vzduchu 74%
Tlak 1016 hPa
Viditelnost 10 km a více
Polojasno ve výšce 3500 ft
Polojasno ve výšce 5000 ft
Oblačno až skoro zataženo ve výšce 6000 ft
přeháňky v blízkosti

METAR: ENRA 131920Z VRB02KT 9999 VCSH SCT035 SCT050 BKN060 M00/M04 Q1016

Čas: 21:38 (19:38 UTC)

Předpověď počasí

Zpráva byla vytvořena před 2 hodinami a 38 minutami, v 17:00 UTC
Předpověď platná od 13 v 18 UTC do 13 v 21 UTC
vítr z různých směrů 5 kt
Viditelnost 10 km a více
Skoro jasno ve výšce 3500 ft
Polojasno ve výšce 5000 ft
Pravděpodobnost 30% :
Dočasný
od 13 v 18 UTC do 13 v 21 UTC
Viditelnost: 4000 m
ve výšce 1200 ft
dešťové přeháňky, sníh

TAF: ENRA 131700Z 1318/1321 VRB05KT 9999 FEW035 SCT050 PROB30 TEMPO 1318/1321 4000 SHRASN VV012

Stav a předpovědi počasí z více než 4 000 letišť (zprávy METAR a TAF).

Červené a žluté tečky na mapě představují dostupné meteorologické stanice.

Když kurzor umístíte na tečku, zobrazí se název stanice.

Pak kliknutím zobrazíte stav a předpověď počasí.

Chcete-li změnit mapu, kliknutím na zelené tlačítko se znaménkem +mapu přiblížíte, kliknutím na zelené tlačítko se znaménkem – mapu oddálíte a kliknutím na zelené šipky přejdete na sousední mapy.


METAR-TAF: